createdAt,value
2019-06-08T00:00:54.762Z,98206.76
2019-06-08T00:03:30.280Z,98201.05
2019-06-08T00:06:04.183Z,98200.75
2019-06-08T00:08:37.929Z,98202.40
2019-06-08T00:11:12.754Z,98204.28
2019-06-08T00:13:46.707Z,98200.75
2019-06-08T00:16:21.473Z,98198.87
2019-06-08T00:18:55.245Z,98200.41
2019-06-08T00:21:29.022Z,98199.28
2019-06-08T00:24:03.203Z,98200.64
2019-06-08T00:26:37.048Z,98200.64
2019-06-08T00:29:10.808Z,98206.34
2019-06-08T00:31:44.587Z,98207.17
2019-06-08T00:34:18.526Z,98203.34
2019-06-08T00:36:52.604Z,98205.22
2019-06-08T00:39:26.329Z,98207.59
2019-06-08T00:42:00.030Z,98216.42
2019-06-08T00:44:33.742Z,98219.65
2019-06-08T00:47:07.574Z,98216.84
2019-06-08T00:49:41.291Z,98220.25
2019-06-08T00:52:15.066Z,98221.83
2019-06-08T00:54:48.910Z,98223.70
2019-06-08T00:57:23.833Z,98222.77
2019-06-08T00:59:59.634Z,98232.23
2019-06-08T01:02:33.969Z,98226.49
2019-06-08T01:05:07.760Z,98225.66
2019-06-08T01:07:41.736Z,98225.36
2019-06-08T01:10:15.669Z,98223.04
2019-06-08T01:12:49.466Z,98219.84
2019-06-08T01:15:29.307Z,98213.39
2019-06-08T01:18:03.709Z,98215.27
2019-06-08T01:20:34.131Z,98215.27
2019-06-08T01:23:09.749Z,98220.45
2019-06-08T01:25:44.763Z,98218.60
2019-06-08T01:28:19.853Z,98220.26
2019-06-08T01:30:53.770Z,98215.38
2019-06-08T01:33:28.785Z,98214.73
2019-06-08T01:36:02.656Z,98213.09
2019-06-08T01:38:36.715Z,98216.81
2019-06-08T01:41:12.286Z,98210.80
2019-06-08T01:43:48.062Z,98212.97
2019-06-08T01:46:21.940Z,98206.41
2019-06-08T01:48:55.779Z,98212.64
2019-06-08T01:51:30.574Z,98216.28
2019-06-08T01:54:04.588Z,98213.09
2019-06-08T01:56:38.755Z,98211.09
2019-06-08T01:59:12.999Z,98210.80
2019-06-08T02:01:46.770Z,98214.85
2019-06-08T02:04:20.726Z,98208.59
2019-06-08T02:06:54.480Z,98211.81
2019-06-08T02:09:28.705Z,98213.99
2019-06-08T02:12:02.782Z,98217.22
2019-06-08T02:14:36.732Z,98221.27
2019-06-08T02:17:10.582Z,98225.86
2019-06-08T02:19:44.439Z,98231.78
2019-06-08T02:22:18.352Z,98233.44
2019-06-08T02:24:52.494Z,98230.55
2019-06-08T02:27:27.245Z,98234.38
2019-06-08T02:30:01.286Z,98227.02
2019-06-08T02:32:36.826Z,98233.25
2019-06-08T02:35:10.440Z,98240.53
2019-06-08T02:37:44.419Z,98238.02
2019-06-08T02:40:18.304Z,98238.77
2019-06-08T02:42:52.387Z,98235.13
2019-06-08T02:45:26.102Z,98233.97
2019-06-08T02:47:59.888Z,98240.61
2019-06-08T02:50:53.903Z,98238.84
2019-06-08T02:53:29.628Z,98242.82
2019-06-08T02:56:03.758Z,98239.38
2019-06-08T02:58:39.102Z,98252.47
2019-06-08T03:01:13.068Z,98257.47
2019-06-08T03:03:46.848Z,98257.13
2019-06-08T03:06:23.347Z,98259.23
2019-06-08T03:08:57.549Z,98261.19
2019-06-08T03:11:32.636Z,98258.81
2019-06-08T03:14:08.318Z,98258.89
2019-06-08T03:16:43.333Z,98266.70
2019-06-08T03:19:22.200Z,98266.81
2019-06-08T03:21:53.101Z,98269.63
2019-06-08T03:24:27.117Z,98265.69
2019-06-08T03:27:00.844Z,98265.36
2019-06-08T03:29:35.533Z,98266.59
2019-06-08T03:32:10.350Z,98268.28
2019-06-08T03:34:54.640Z,98273.34
2019-06-08T03:37:19.800Z,98268.99
2019-06-08T03:39:53.621Z,98268.99
2019-06-08T03:42:27.537Z,98275.22
2019-06-08T03:45:01.197Z,98273.77
2019-06-08T03:47:36.878Z,98275.94
2019-06-08T03:50:10.512Z,98282.39
2019-06-08T03:52:46.284Z,98286.14
2019-06-08T03:55:20.526Z,98286.45
2019-06-08T03:57:54.365Z,98288.32
2019-06-08T04:00:28.411Z,98293.20
2019-06-08T04:03:02.634Z,98298.91
2019-06-08T04:05:40.770Z,98300.72
2019-06-08T04:08:14.111Z,98302.26
2019-06-08T04:10:47.980Z,98303.95
2019-06-08T04:13:22.411Z,98306.42
2019-06-08T04:15:57.735Z,98307.89
2019-06-08T04:18:31.588Z,98303.02
2019-06-08T04:21:05.360Z,98308.20
2019-06-08T04:23:41.109Z,98314.95
2019-06-08T04:26:15.767Z,98321.72
2019-06-08T04:28:49.757Z,98323.19
2019-06-08T04:31:23.624Z,98326.63
2019-06-08T04:33:57.490Z,98321.72
2019-06-08T04:36:31.444Z,98320.70
2019-06-08T04:39:06.693Z,98326.41
2019-06-08T04:41:41.127Z,98329.94
2019-06-08T04:44:16.172Z,98334.52
2019-06-08T04:46:50.088Z,98327.23
2019-06-08T04:49:23.924Z,98331.11
2019-06-08T04:51:57.580Z,98337.34
2019-06-08T04:54:31.500Z,98340.05
2019-06-08T04:57:05.261Z,98343.08
2019-06-08T04:59:41.137Z,98343.39
2019-06-08T05:02:14.432Z,98353.04
2019-06-08T05:04:49.484Z,98364.19
2019-06-08T05:07:23.537Z,98362.02
2019-06-08T05:09:57.431Z,98370.42
2019-06-08T05:12:31.676Z,98368.55
2019-06-08T05:15:05.666Z,98373.43
2019-06-08T05:17:41.047Z,98372.41
2019-06-08T05:20:15.250Z,98374.30
2019-06-08T05:22:49.797Z,98379.48
2019-06-08T05:25:24.011Z,98384.89
2019-06-08T05:27:57.884Z,98392.48
2019-06-08T05:30:31.622Z,98389.99
2019-06-08T05:33:05.585Z,98395.70
2019-06-08T05:35:39.515Z,98393.30
2019-06-08T05:38:13.332Z,98395.52
2019-06-08T05:40:47.713Z,98395.18
2019-06-08T05:43:22.122Z,98397.98
2019-06-08T05:45:56.020Z,98395.59
2019-06-08T05:48:30.062Z,98404.12
2019-06-08T05:51:04.569Z,98410.88
2019-06-08T05:53:39.595Z,98406.33
2019-06-08T05:56:13.590Z,98411.22
2019-06-08T05:58:48.127Z,98416.63
2019-06-08T06:01:22.956Z,98421.52
2019-06-08T06:03:56.919Z,98411.00
2019-06-08T06:06:31.296Z,98415.58
2019-06-08T06:09:07.050Z,98418.92
2019-06-08T06:11:40.932Z,98422.98
2019-06-08T06:14:14.758Z,98424.86
2019-06-08T06:16:49.139Z,98423.81
2019-06-08T06:19:23.166Z,98424.64
2019-06-08T06:21:56.875Z,98427.46
2019-06-08T06:24:30.838Z,98424.33
2019-06-08T06:27:04.798Z,98425.69
2019-06-08T06:29:38.458Z,98438.16
2019-06-08T06:32:12.192Z,98432.45
2019-06-08T06:34:46.046Z,98438.68
2019-06-08T06:37:20.919Z,98442.03
2019-06-08T06:39:54.675Z,98442.22
2019-06-08T06:42:28.582Z,98439.91
2019-06-08T06:45:02.781Z,98444.19
2019-06-08T06:47:36.447Z,98435.84
2019-06-08T06:50:12.164Z,98436.73
2019-06-08T06:52:46.687Z,98438.30
2019-06-08T06:55:20.760Z,98443.71
2019-06-08T06:57:54.507Z,98446.84
2019-06-08T07:00:34.614Z,98448.19
2019-06-08T07:03:08.298Z,98453.13
2019-06-08T07:05:42.242Z,98450.33
2019-06-08T07:08:17.493Z,98452.13
2019-06-08T07:10:51.350Z,98460.77
2019-06-08T07:13:26.046Z,98460.44
2019-06-08T07:16:16.912Z,98457.83
2019-06-08T07:18:35.898Z,98454.72
2019-06-08T07:21:09.773Z,98460.13
2019-06-08T07:23:43.588Z,98461.89
2019-06-08T07:26:17.435Z,98468.43
2019-06-08T07:28:54.147Z,98471.90
2019-06-08T07:31:28.162Z,98475.86
2019-06-08T07:34:02.271Z,98478.02
2019-06-08T07:36:36.159Z,98481.52
2019-06-08T07:39:10.084Z,98478.58
2019-06-08T07:41:43.990Z,98481.22
2019-06-08T07:44:17.773Z,98477.45
2019-06-08T07:46:51.614Z,98480.15
2019-06-08T07:49:25.413Z,98483.50
2019-06-08T07:52:09.713Z,98490.50
2019-06-08T07:54:35.046Z,98491.33
2019-06-08T07:57:10.270Z,98492.62
2019-06-08T07:59:44.178Z,98495.48
2019-06-08T08:02:18.149Z,98494.13
2019-06-08T08:04:52.515Z,98493.63
2019-06-08T08:07:26.588Z,98498.77
2019-06-08T08:10:00.405Z,98492.28
2019-06-08T08:12:34.203Z,98493.84
2019-06-08T08:15:08.175Z,98494.86
2019-06-08T08:17:41.902Z,98494.38
2019-06-08T08:20:15.806Z,98503.90
2019-06-08T08:22:54.415Z,98499.66
2019-06-08T08:25:25.333Z,98499.37
2019-06-08T08:28:00.910Z,98504.51
2019-06-08T08:30:37.534Z,98501.09
2019-06-08T08:33:10.932Z,98501.16
2019-06-08T08:35:44.772Z,98499.26
2019-06-08T08:38:18.709Z,98500.52
2019-06-08T08:40:54.698Z,98501.31
2019-06-08T08:43:28.570Z,98502.12
2019-06-08T08:46:02.499Z,98503.47
2019-06-08T08:48:37.698Z,98506.56
2019-06-08T08:51:12.013Z,98508.23
2019-06-08T08:53:48.201Z,98507.86
2019-06-08T08:56:22.101Z,98512.03
2019-06-08T08:58:59.158Z,98511.73
2019-06-08T09:01:31.686Z,98517.44
2019-06-08T09:04:08.555Z,98513.78
2019-06-08T09:06:41.217Z,98514.55
2019-06-08T09:09:18.352Z,98510.99
2019-06-08T09:11:51.583Z,98506.63
2019-06-08T09:14:28.068Z,98493.79
2019-06-08T09:17:03.419Z,98496.95
2019-06-08T09:19:40.365Z,98500.15
2019-06-08T09:22:14.839Z,98499.66
2019-06-08T09:24:48.897Z,98501.72
2019-06-08T09:27:22.949Z,98508.78
2019-06-08T09:29:59.684Z,98503.47
2019-06-08T09:32:34.647Z,98502.83
2019-06-08T09:35:09.373Z,98506.17
2019-06-08T09:37:43.771Z,98513.17
2019-06-08T09:40:19.854Z,98515.02
2019-06-08T09:43:01.053Z,98517.84
2019-06-08T09:45:30.468Z,98514.13
2019-06-08T09:48:05.655Z,98518.73
2019-06-08T09:50:40.059Z,98519.45
2019-06-08T09:53:23.878Z,98525.19
2019-06-08T09:55:49.668Z,98525.80
2019-06-08T09:58:23.511Z,98527.16
2019-06-08T10:01:01.046Z,98536.44
2019-06-08T10:03:33.166Z,98538.49
2019-06-08T10:06:11.540Z,98545.99
2019-06-08T10:08:42.729Z,98543.08
2019-06-08T10:11:16.761Z,98549.65
2019-06-08T10:13:50.638Z,98546.09
2019-06-08T10:16:24.825Z,98553.49
2019-06-08T10:19:03.151Z,98560.37
2019-06-08T10:21:34.515Z,98557.55
2019-06-08T10:24:09.494Z,98571.77
2019-06-08T10:26:43.883Z,98562.83
2019-06-08T10:29:18.459Z,98567.02
2019-06-08T10:31:53.047Z,98572.67
2019-06-08T10:34:27.276Z,98568.49
2019-06-08T10:37:08.314Z,98581.61
2019-06-08T10:39:38.620Z,98583.00
2019-06-08T10:42:13.094Z,98579.16
2019-06-08T10:44:47.045Z,98585.67
2019-06-08T10:47:21.148Z,98582.57
2019-06-08T10:49:54.956Z,98581.16
2019-06-08T10:52:28.668Z,98577.81
2019-06-08T10:55:04.665Z,98583.00
2019-06-08T10:57:38.831Z,98580.41
2019-06-08T11:00:22.618Z,98584.50
2019-06-08T11:02:49.939Z,98581.53
2019-06-08T11:05:23.946Z,98580.53
2019-06-08T11:07:59.339Z,98581.27
2019-06-08T11:10:33.473Z,98585.72
2019-06-08T11:13:13.314Z,98582.98
2019-06-08T11:15:43.170Z,98583.81
2019-06-08T11:18:18.613Z,98584.71
2019-06-08T11:20:52.629Z,98585.02
2019-06-08T11:23:28.620Z,98572.33
2019-06-08T11:26:04.633Z,98569.00
2019-06-08T11:28:38.330Z,98569.83
2019-06-08T11:31:16.111Z,98575.36
2019-06-08T11:33:51.386Z,98586.36
2019-06-08T11:36:28.189Z,98581.78
2019-06-08T11:39:02.917Z,98585.71
2019-06-08T11:41:37.943Z,98583.34
2019-06-08T11:44:14.918Z,98580.25
2019-06-08T11:46:49.873Z,98583.34
2019-06-08T11:49:27.729Z,98590.80
2019-06-08T11:52:00.716Z,98589.33
2019-06-08T11:54:40.022Z,98583.66
2019-06-08T11:57:12.792Z,98587.84
2019-06-08T11:59:48.464Z,98588.27
2019-06-08T12:02:22.900Z,98587.12
2019-06-08T12:04:57.256Z,98586.79
2019-06-08T12:07:32.336Z,98591.06
2019-06-08T12:10:09.664Z,98594.34
2019-06-08T12:12:43.148Z,98585.92
2019-06-08T12:15:18.149Z,98588.02
2019-06-08T12:17:53.056Z,98590.97
2019-06-08T12:20:28.007Z,98596.91
2019-06-08T12:23:01.960Z,98598.91
2019-06-08T12:25:37.755Z,98607.59
2019-06-08T12:28:12.586Z,98615.27
2019-06-08T12:30:47.918Z,98606.45
2019-06-08T12:33:22.969Z,98610.11
2019-06-08T12:35:57.895Z,98612.69
2019-06-08T12:38:34.635Z,98617.14
2019-06-08T12:41:09.629Z,98633.02
2019-06-08T12:43:43.497Z,98634.05
2019-06-08T12:46:19.820Z,98644.48
2019-06-08T12:48:53.150Z,98634.49
2019-06-08T12:51:28.085Z,98641.59
2019-06-08T12:54:02.311Z,98648.66
2019-06-08T12:56:37.785Z,98645.44
2019-06-08T12:59:15.283Z,98640.86
2019-06-08T13:01:48.423Z,98647.31
2019-06-08T13:04:23.803Z,98659.48
2019-06-08T13:06:58.460Z,98666.76
2019-06-08T13:09:32.797Z,98668.94
2019-06-08T13:12:07.931Z,98674.35
2019-06-08T13:14:41.891Z,98679.76
2019-06-08T13:17:19.264Z,98689.05
2019-06-08T13:19:51.850Z,98688.70
2019-06-08T13:22:29.021Z,98683.64
2019-06-08T13:25:15.687Z,98692.06
2019-06-08T13:27:37.970Z,98701.52
2019-06-08T13:30:15.439Z,98709.33
2019-06-08T13:32:48.234Z,98719.10
2019-06-08T13:35:22.533Z,98727.39
2019-06-08T13:37:57.618Z,98711.69
2019-06-08T13:40:31.861Z,98720.84
2019-06-08T13:43:07.962Z,98737.59
2019-06-08T13:45:40.958Z,98744.84
2019-06-08T13:48:16.025Z,98742.66
2019-06-08T13:50:52.271Z,98742.03
2019-06-08T13:53:29.356Z,98741.83
2019-06-08T13:56:02.000Z,98749.81
2019-06-08T13:58:38.211Z,98753.34
2019-06-08T14:01:13.400Z,98756.91
2019-06-08T14:03:49.993Z,98760.63
2019-06-08T14:06:24.979Z,98763.46
2019-06-08T14:08:59.324Z,98775.94
2019-06-08T14:11:33.052Z,98774.09
2019-06-08T14:14:08.518Z,98781.55
2019-06-08T14:16:42.741Z,98780.38
2019-06-08T14:19:19.360Z,98771.96
2019-06-08T14:21:52.330Z,98778.02
2019-06-08T14:24:32.149Z,98771.78
2019-06-08T14:27:02.106Z,98784.44
2019-06-08T14:29:36.061Z,98787.14
2019-06-08T14:32:09.765Z,98793.91
2019-06-08T14:34:49.752Z,98799.97
2019-06-08T14:37:24.864Z,98804.02
2019-06-08T14:39:58.619Z,98808.78
2019-06-08T14:42:34.003Z,98816.72
2019-06-08T14:45:10.807Z,98812.52
2019-06-08T14:47:47.587Z,98815.75
2019-06-08T14:50:22.929Z,98814.92
2019-06-08T14:52:58.806Z,98818.97
2019-06-08T14:55:34.371Z,98819.98
2019-06-08T14:58:09.129Z,98821.85
2019-06-08T15:00:45.260Z,98827.09
2019-06-08T15:03:21.146Z,98819.14
2019-06-08T15:05:55.168Z,98819.67
2019-06-08T15:08:31.121Z,98823.38
2019-06-08T15:11:07.921Z,98823.73
2019-06-08T15:13:41.721Z,98826.22
2019-06-08T15:16:18.028Z,98837.56
2019-06-08T15:18:51.294Z,98832.67
2019-06-08T15:21:26.506Z,98837.63
2019-06-08T15:24:02.121Z,98840.51
2019-06-08T15:26:42.337Z,98841.03
2019-06-08T15:29:12.031Z,98842.90
2019-06-08T15:31:48.216Z,98845.91
2019-06-08T15:34:23.251Z,98842.07
2019-06-08T15:36:57.573Z,98840.51
2019-06-08T15:39:33.986Z,98834.58
2019-06-08T15:42:08.258Z,98836.28
2019-06-08T15:44:42.523Z,98844.56
2019-06-08T15:47:18.041Z,98841.34
2019-06-08T15:49:52.722Z,98844.05
2019-06-08T15:52:29.539Z,98846.23
2019-06-08T15:55:02.350Z,98851.45
2019-06-08T15:57:40.359Z,98837.94
2019-06-08T16:00:11.670Z,98860.75
2019-06-08T16:02:45.626Z,98861.23
2019-06-08T16:05:19.692Z,98869.87
2019-06-08T16:07:53.850Z,98868.20
2019-06-08T16:10:28.130Z,98863.63
2019-06-08T16:13:04.214Z,98870.70
2019-06-08T16:15:39.648Z,98863.77
2019-06-08T16:18:14.078Z,98873.41
2019-06-08T16:20:50.743Z,98877.36
2019-06-08T16:23:25.351Z,98879.75
2019-06-08T16:25:59.313Z,98883.59
2019-06-08T16:28:34.167Z,98880.47
2019-06-08T16:31:08.004Z,98878.45
2019-06-08T16:33:44.189Z,98875.83
2019-06-08T16:36:17.725Z,98876.42
2019-06-08T16:38:53.008Z,98872.95
2019-06-08T16:41:27.764Z,98876.80
2019-06-08T16:44:06.098Z,98881.21
2019-06-08T16:46:38.605Z,98882.84
2019-06-08T16:49:12.706Z,98889.98
2019-06-08T16:51:47.184Z,98888.58
2019-06-08T16:54:20.977Z,98894.10
2019-06-08T16:57:08.968Z,98891.62
2019-06-08T16:59:30.539Z,98907.97
2019-06-08T17:02:06.288Z,98909.83
2019-06-08T17:04:41.650Z,98908.09
2019-06-08T17:07:16.172Z,98914.05
2019-06-08T17:09:50.909Z,98906.13
2019-06-08T17:12:25.394Z,98900.17
2019-06-08T17:14:59.606Z,98899.98
2019-06-08T17:17:34.684Z,98900.52
2019-06-08T17:20:09.834Z,98900.52
2019-06-08T17:22:43.741Z,98906.07
2019-06-08T17:25:17.552Z,98907.05
2019-06-08T17:27:51.418Z,98913.63
2019-06-08T17:30:25.282Z,98917.48
2019-06-08T17:32:59.323Z,98922.37
2019-06-08T17:35:35.595Z,98932.17
2019-06-08T17:38:09.560Z,98933.15
2019-06-08T17:40:44.366Z,98938.88
2019-06-08T17:43:19.279Z,98928.06
2019-06-08T17:45:53.018Z,98931.59
2019-06-08T17:48:28.009Z,98935.16
2019-06-08T17:51:02.024Z,98942.75
2019-06-08T17:53:36.955Z,98947.33
2019-06-08T17:56:10.903Z,98949.83
2019-06-08T17:58:46.148Z,98949.31
2019-06-08T18:01:21.423Z,98947.13
2019-06-08T18:03:57.359Z,98957.25
2019-06-08T18:06:30.972Z,98964.32
2019-06-08T18:09:07.870Z,98959.75
2019-06-08T18:11:43.481Z,98966.50
2019-06-08T18:14:19.351Z,98962.45
2019-06-08T18:16:53.302Z,98963.31
2019-06-08T18:19:29.845Z,98970.91
2019-06-08T18:22:05.703Z,98972.05
2019-06-08T18:24:40.889Z,98977.46
2019-06-08T18:27:17.827Z,98989.63
2019-06-08T18:29:51.682Z,98990.66
2019-06-08T18:32:27.213Z,98990.66
2019-06-08T18:35:01.062Z,99009.07
2019-06-08T18:37:34.893Z,99011.98
2019-06-08T18:40:09.072Z,99014.16
2019-06-08T18:42:44.619Z,99022.59
2019-06-08T18:45:19.434Z,99027.16
2019-06-08T18:47:53.608Z,99034.44
2019-06-08T18:50:28.475Z,99038.50
2019-06-08T18:53:03.780Z,99042.55
2019-06-08T18:55:40.541Z,99043.91
2019-06-08T18:58:21.270Z,99046.92
2019-06-08T19:00:51.380Z,99039.16
2019-06-08T19:03:25.100Z,99047.44
2019-06-08T19:05:59.024Z,99046.09
2019-06-08T19:08:32.952Z,99045.25
2019-06-08T19:11:08.118Z,99052.33
2019-06-08T19:13:42.571Z,99059.44
2019-06-08T19:16:18.176Z,99061.27
2019-06-08T19:18:52.923Z,99061.94
2019-06-08T19:21:27.803Z,99067.34
2019-06-08T19:24:03.879Z,99073.59
2019-06-08T19:26:40.978Z,99075.45
2019-06-08T19:29:13.222Z,99083.56
2019-06-08T19:31:51.182Z,99086.47
2019-06-08T19:34:24.004Z,99094.90
2019-06-08T19:36:57.942Z,99104.68
2019-06-08T19:39:32.175Z,99104.68
2019-06-08T19:42:07.988Z,99100.63
2019-06-08T19:44:50.556Z,99112.94
2019-06-08T19:47:17.727Z,99113.45
2019-06-08T19:49:54.742Z,99121.57
2019-06-08T19:52:27.568Z,99126.98
2019-06-08T19:55:01.491Z,99117.00
2019-06-08T19:57:35.149Z,99127.33
2019-06-08T20:00:09.022Z,99123.76
2019-06-08T20:02:44.544Z,99125.77
2019-06-08T20:05:18.853Z,99118.50
2019-06-08T20:07:53.729Z,99120.68
2019-06-08T20:10:28.120Z,99130.66
2019-06-08T20:13:02.355Z,99127.13
2019-06-08T20:15:43.458Z,99131.70
2019-06-08T20:18:12.423Z,99130.34
2019-06-08T20:20:49.059Z,99130.66
2019-06-08T20:23:21.480Z,99130.66
2019-06-08T20:25:57.360Z,99138.77
2019-06-08T20:28:30.714Z,99132.02
2019-06-08T20:31:04.599Z,99132.85
2019-06-08T20:33:41.318Z,99136.91
2019-06-08T20:36:17.397Z,99138.77
2019-06-08T20:38:51.015Z,99136.59
2019-06-08T20:41:24.666Z,99143.35
2019-06-08T20:43:58.518Z,99143.18
2019-06-08T20:46:32.258Z,99149.94
2019-06-08T20:49:08.194Z,99146.72
2019-06-08T20:51:42.484Z,99147.23
2019-06-08T20:54:17.218Z,99153.48
2019-06-08T20:56:52.097Z,99150.78
2019-06-08T20:59:32.957Z,99153.48
2019-06-08T21:02:02.484Z,99145.89
2019-06-08T21:04:38.410Z,99151.78
2019-06-08T21:07:12.385Z,99160.24
2019-06-08T21:09:49.611Z,99162.42
2019-06-08T21:12:22.095Z,99159.72
2019-06-08T21:14:55.879Z,99165.13
2019-06-08T21:17:29.969Z,99169.51
2019-06-08T21:20:03.684Z,99169.19
2019-06-08T21:22:37.630Z,99171.89
2019-06-08T21:25:11.782Z,99174.59
2019-06-08T21:27:48.058Z,99180.33
2019-06-08T21:30:24.485Z,99187.60
2019-06-08T21:33:00.726Z,99190.66
2019-06-08T21:35:33.920Z,99193.84
2019-06-08T21:38:22.557Z,99197.91
2019-06-08T21:40:43.315Z,99200.12
2019-06-08T21:43:18.413Z,99196.06
2019-06-08T21:45:53.506Z,99198.25
2019-06-08T21:48:27.910Z,99201.47
2019-06-08T21:51:01.942Z,99204.66
2019-06-08T21:53:37.996Z,99203.66
2019-06-08T21:56:11.868Z,99203.66
2019-06-08T21:58:47.323Z,99202.31
2019-06-08T22:01:21.427Z,99205.84
2019-06-08T22:03:56.556Z,99205.02
2019-06-08T22:06:30.567Z,99207.20
2019-06-08T22:09:07.068Z,99210.42
2019-06-08T22:11:40.909Z,99213.44
2019-06-08T22:14:14.884Z,99216.15
2019-06-08T22:16:48.666Z,99218.85
2019-06-08T22:19:22.798Z,99223.74
2019-06-08T22:21:59.813Z,99217.50
2019-06-08T22:24:32.233Z,99213.12
2019-06-08T22:27:07.190Z,99213.95
2019-06-08T22:29:41.202Z,99213.44
2019-06-08T22:32:14.972Z,99214.80
2019-06-08T22:34:48.841Z,99211.25
2019-06-08T22:37:23.340Z,99211.57
2019-06-08T22:39:58.222Z,99216.50
2019-06-08T22:42:33.233Z,99216.50
2019-06-08T22:45:08.276Z,99216.50
2019-06-08T22:47:42.362Z,99218.17
2019-06-08T22:50:18.412Z,99219.52
2019-06-08T22:52:53.516Z,99221.70
2019-06-08T22:55:27.736Z,99215.98
2019-06-08T22:58:03.049Z,99217.33
2019-06-08T23:00:51.817Z,99213.28
2019-06-08T23:03:12.776Z,99220.36
2019-06-08T23:05:47.687Z,99214.11
2019-06-08T23:08:22.004Z,99224.09
2019-06-08T23:10:58.599Z,99224.92
2019-06-08T23:13:31.373Z,99225.45
2019-06-08T23:16:06.191Z,99233.05
2019-06-08T23:18:40.589Z,99224.92
2019-06-08T23:21:14.309Z,99229.30
2019-06-08T23:23:48.075Z,99233.36
2019-06-08T23:26:21.891Z,99229.30
2019-06-08T23:28:56.090Z,99227.63
2019-06-08T23:31:31.457Z,99232.52
2019-06-08T23:34:09.231Z,99232.88
2019-06-08T23:36:53.261Z,99236.06
2019-06-08T23:39:18.009Z,99237.42
2019-06-08T23:41:51.540Z,99239.63
2019-06-08T23:44:25.521Z,99240.47
2019-06-08T23:47:01.154Z,99248.23
2019-06-08T23:49:34.747Z,99247.40
2019-06-08T23:52:11.273Z,99250.94
2019-06-08T23:54:43.965Z,99244.18
2019-06-08T23:57:18.067Z,99246.39
2019-06-08T23:59:51.918Z,99243.17
